Time;durP1;ratioP1;P1;durP2;ratioP2;P2;SDS_P1;SDS_P2;PMS_P1;PMS_P2;Temp;Humidity;BMP_temperature;BMP_pressure;BME280_temperature;BME280_humidity;BME280_pressure;Samples;Min_cycle;Max_cycle;Signal;HPM_P1;HPM_P2
2022/07/09 00:01:20;;;;;;;4.20;2.10;;;;;;;;;;7364907;19;20584;-78
2022/07/09 00:03:45;;;;;;;7.97;2.58;;;;;;;;;;7365614;19;20082;-77
2022/07/09 00:06:11;;;;;;;6.30;2.60;;;;;;;;;;7349338;19;19999;-81
2022/07/09 00:08:36;;;;;;;4.82;2.53;;;;;;;;;;7367121;19;20145;-80
2022/07/09 00:11:01;;;;;;;5.63;2.15;;;;;;;;;;7367040;19;20676;-77
2022/07/09 00:13:26;;;;;;;6.87;2.60;;;;;;;;;;7369572;19;20336;-79
2022/07/09 00:15:52;;;;;;;5.13;2.28;;;;;;;;;;7370905;19;20033;-77
2022/07/09 00:18:18;;;;;;;6.50;2.78;;;;;;;;;;7360514;19;20497;-81
2022/07/09 00:20:43;;;;;;;6.05;2.55;;;;;;;;;;7368824;19;20133;-78
2022/07/09 00:23:08;;;;;;;5.85;2.58;;;;;;;;;;7355677;19;20458;-78
2022/07/09 00:25:33;;;;;;;7.97;3.17;;;;;;;;;;7359744;19;20355;-79
2022/07/09 00:27:58;;;;;;;6.32;2.60;;;;;;;;;;7367826;19;20239;-81
2022/07/09 00:30:24;;;;;;;6.20;2.63;;;;;;;;;;7358099;19;19999;-77
2022/07/09 00:32:49;;;;;;;7.63;2.73;;;;;;;;;;7370613;19;20239;-78
2022/07/09 00:35:14;;;;;;;7.83;2.83;;;;;;;;;;7372368;19;20022;-77
2022/07/09 00:37:39;;;;;;;7.35;2.63;;;;;;;;;;7369064;19;20272;-80
2022/07/09 00:40:05;;;;;;;6.93;2.67;;;;;;;;;;7329051;19;20121;-80
2022/07/09 00:42:31;;;;;;;6.47;2.80;;;;;;;;;;7374383;19;20493;-78
2022/07/09 00:44:56;;;;;;;6.65;2.90;;;;;;;;;;7371267;19;20418;-78
2022/07/09 00:47:22;;;;;;;6.50;3.07;;;;;;;;;;7367781;19;20081;-80
2022/07/09 00:49:48;;;;;;;6.63;2.70;;;;;;;;;;7375502;19;20274;-78
2022/07/09 00:52:14;;;;;;;5.88;2.53;;;;;;;;;;7370567;19;20787;-80
2022/07/09 00:54:40;;;;;;;7.20;3.17;;;;;;;;;;7360433;19;20014;-83
2022/07/09 00:57:06;;;;;;;6.38;2.55;;;;;;;;;;7370703;19;20210;-78
2022/07/09 00:59:32;;;;;;;7.18;3.30;;;;;;;;;;7370859;19;20018;-79
2022/07/09 01:01:59;;;;;;;6.60;3.42;;;;;;;;;;7368543;19;20041;-78
2022/07/09 01:04:27;;;;;;;7.03;3.15;;;;;;;;;;7361080;19;20101;-82
2022/07/09 01:06:52;;;;;;;6.88;3.08;;;;;;;;;;7359199;19;20422;-79
2022/07/09 01:09:17;;;;;;;6.22;2.72;;;;;;;;;;7353112;19;20003;-82
2022/07/09 01:11:43;;;;;;;6.65;2.60;;;;;;;;;;7370020;19;20027;-81
2022/07/09 01:14:08;;;;;;;6.30;2.67;;;;;;;;;;7368662;19;20718;-78
2022/07/09 01:16:34;;;;;;;5.70;2.80;;;;;;;;;;7371693;19;20021;-81
2022/07/09 01:19:00;;;;;;;6.90;3.08;;;;;;;;;;7365102;19;20494;-80
2022/07/09 01:21:25;;;;;;;7.13;2.78;;;;;;;;;;7371882;19;19991;-79
2022/07/09 01:23:50;;;;;;;6.25;2.95;;;;;;;;;;7369854;19;20010;-80
2022/07/09 01:26:16;;;;;;;8.80;2.95;;;;;;;;;;7362468;19;20005;-80
2022/07/09 01:28:41;;;;;;;9.55;3.50;;;;;;;;;;7363245;19;20003;-79
2022/07/09 01:31:07;;;;;;;13.85;3.22;;;;;;;;;;7367789;19;20017;-81
2022/07/09 01:33:33;;;;;;;8.25;2.63;;;;;;;;;;7373410;19;20006;-79
2022/07/09 01:35:58;;;;;;;7.43;3.00;;;;;;;;;;7370578;19;20349;-79
2022/07/09 01:38:23;;;;;;;7.53;2.90;;;;;;;;;;7374985;19;19998;-80
2022/07/09 01:40:48;;;;;;;7.38;3.30;;;;;;;;;;7376975;19;20022;-80
2022/07/09 01:43:14;;;;;;;6.45;3.00;;;;;;;;;;7378518;19;20131;-78
2022/07/09 01:45:39;;;;;;;7.80;2.90;;;;;;;;;;7374474;19;20029;-78
2022/07/09 01:48:04;;;;;;;5.77;2.87;;;;;;;;;;7369326;19;20037;-82
2022/07/09 01:50:29;;;;;;;6.65;2.70;;;;;;;;;;7369184;19;20263;-77
2022/07/09 01:52:55;;;;;;;6.80;2.50;;;;;;;;;;7373008;19;20063;-83
2022/07/09 01:55:20;;;;;;;5.85;2.70;;;;;;;;;;7370656;19;20019;-78
2022/07/09 01:57:45;;;;;;;7.85;3.03;;;;;;;;;;7374398;19;20058;-81
2022/07/09 02:00:11;;;;;;;7.63;2.60;;;;;;;;;;7373145;19;20808;-78
2022/07/09 02:02:36;;;;;;;7.10;2.88;;;;;;;;;;7371747;19;21099;-77
2022/07/09 02:05:01;;;;;;;6.95;2.65;;;;;;;;;;7369361;19;20014;-81
2022/07/09 02:07:26;;;;;;;5.45;2.55;;;;;;;;;;7379356;19;20669;-83
2022/07/09 02:09:52;;;;;;;6.65;2.92;;;;;;;;;;7370234;19;20018;-82
2022/07/09 02:12:17;;;;;;;11.88;3.08;;;;;;;;;;7376389;19;20010;-78
2022/07/09 02:14:43;;;;;;;11.32;3.70;;;;;;;;;;7377563;19;20446;-79
2022/07/09 02:17:08;;;;;;;6.63;2.83;;;;;;;;;;7371641;19;20006;-82
2022/07/09 02:19:33;;;;;;;6.37;2.70;;;;;;;;;;7375885;19;20541;-79
2022/07/09 02:21:58;;;;;;;7.60;2.73;;;;;;;;;;7379753;19;20243;-78
2022/07/09 02:24:23;;;;;;;6.53;3.30;;;;;;;;;;7371309;19;20805;-79
2022/07/09 02:26:49;;;;;;;6.40;2.90;;;;;;;;;;7376897;19;20353;-80
2022/07/09 02:29:14;;;;;;;7.63;2.70;;;;;;;;;;7376508;19;20082;-78
2022/07/09 02:31:39;;;;;;;4.50;2.40;;;;;;;;;;7376046;19;20034;-77
2022/07/09 02:34:04;;;;;;;4.07;2.17;;;;;;;;;;7376069;19;20007;-80
2022/07/09 02:36:29;;;;;;;6.10;2.55;;;;;;;;;;7373705;19;20639;-77
2022/07/09 02:38:55;;;;;;;4.95;2.70;;;;;;;;;;7367851;19;20007;-83
2022/07/09 02:41:20;;;;;;;8.18;2.70;;;;;;;;;;7376347;19;20021;-77
2022/07/09 02:43:45;;;;;;;7.80;3.20;;;;;;;;;;7377920;19;20006;-80
2022/07/09 02:46:11;;;;;;;5.30;2.73;;;;;;;;;;7374669;19;20247;-82
2022/07/09 02:48:36;;;;;;;6.30;2.30;;;;;;;;;;7369648;19;20642;-78
2022/07/09 02:51:01;;;;;;;5.57;2.65;;;;;;;;;;7369337;19;20007;-80
2022/07/09 02:53:26;;;;;;;4.82;2.30;;;;;;;;;;7368939;19;20014;-78
2022/07/09 02:55:52;;;;;;;5.13;2.58;;;;;;;;;;7369795;19;20026;-82
2022/07/09 02:58:17;;;;;;;6.63;2.97;;;;;;;;;;7376510;19;20082;-81
2022/07/09 03:00:42;;;;;;;8.68;3.08;;;;;;;;;;7368164;19;20034;-79
2022/07/09 03:03:08;;;;;;;7.93;2.90;;;;;;;;;;7370971;19;20018;-77
2022/07/09 03:05:33;;;;;;;5.30;2.70;;;;;;;;;;7374005;19;20026;-78
2022/07/09 03:07:59;;;;;;;7.35;3.38;;;;;;;;;;7369383;19;20086;-83
2022/07/09 03:10:24;;;;;;;6.20;2.55;;;;;;;;;;7366442;19;20029;-81
2022/07/09 03:12:50;;;;;;;5.80;2.70;;;;;;;;;;7376374;19;20200;-83
2022/07/09 03:15:16;;;;;;;6.95;2.70;;;;;;;;;;7368378;19;20023;-81
2022/07/09 03:17:42;;;;;;;6.30;3.20;;;;;;;;;;7375890;19;20006;-79
2022/07/09 03:20:07;;;;;;;6.88;3.00;;;;;;;;;;7377269;19;20078;-81
2022/07/09 03:22:32;;;;;;;7.53;2.75;;;;;;;;;;7373226;19;20014;-80
2022/07/09 03:24:58;;;;;;;5.68;2.88;;;;;;;;;;7368958;19;20028;-79
2022/07/09 03:27:23;;;;;;;6.33;2.87;;;;;;;;;;7375487;19;20010;-80
2022/07/09 03:29:48;;;;;;;7.28;2.78;;;;;;;;;;7371854;19;20259;-79
2022/07/09 03:32:13;;;;;;;6.18;2.90;;;;;;;;;;7370453;19;20010;-80
2022/07/09 03:34:38;;;;;;;7.90;3.15;;;;;;;;;;7374550;19;20003;-77
2022/07/09 03:37:04;;;;;;;6.05;2.75;;;;;;;;;;7375928;19;20115;-81
2022/07/09 03:39:29;;;;;;;7.45;2.65;;;;;;;;;;7370669;19;20011;-80
2022/07/09 03:41:54;;;;;;;8.02;3.00;;;;;;;;;;7375891;19;20373;-78
2022/07/09 03:44:19;;;;;;;5.63;2.60;;;;;;;;;;7375733;19;20007;-80
2022/07/09 03:46:44;;;;;;;8.02;2.72;;;;;;;;;;7370590;19;20224;-79
2022/07/09 03:49:10;;;;;;;4.85;2.72;;;;;;;;;;7375666;19;20970;-80
2022/07/09 03:51:36;;;;;;;7.05;2.88;;;;;;;;;;7374636;19;20017;-86
2022/07/09 03:54:01;;;;;;;5.93;2.63;;;;;;;;;;7372294;19;20046;-80
2022/07/09 03:56:26;;;;;;;7.28;2.42;;;;;;;;;;7370371;19;20005;-82
2022/07/09 03:58:51;;;;;;;7.50;2.73;;;;;;;;;;7362734;19;20006;-80
2022/07/09 04:01:17;;;;;;;6.60;2.95;;;;;;;;;;7370169;19;20266;-81
2022/07/09 04:03:42;;;;;;;7.18;2.72;;;;;;;;;;7366708;19;20010;-79
2022/07/09 04:06:07;;;;;;;7.00;3.00;;;;;;;;;;7368646;19;20010;-80
2022/07/09 04:08:32;;;;;;;8.37;2.90;;;;;;;;;;7369137;19;20255;-79
2022/07/09 04:10:57;;;;;;;5.13;2.88;;;;;;;;;;7372328;19;20268;-79
2022/07/09 04:13:22;;;;;;;7.03;2.57;;;;;;;;;;7370098;19;20015;-84
2022/07/09 04:15:48;;;;;;;5.80;2.80;;;;;;;;;;7368071;19;20798;-81
2022/07/09 04:18:14;;;;;;;7.30;3.40;;;;;;;;;;7368687;19;20334;-79
2022/07/09 04:20:39;;;;;;;5.72;2.53;;;;;;;;;;7367419;19;20231;-82
2022/07/09 17:35:11;;;;;;;5.53;2.05;;;;;;;;;;7317061;19;20030;-74
2022/07/09 17:37:36;;;;;;;5.63;2.00;;;;;;;;;;7345018;19;20601;-74
2022/07/09 17:40:02;;;;;;;5.65;1.80;;;;;;;;;;7365679;19;20015;-75
2022/07/09 17:42:28;;;;;;;5.93;1.60;;;;;;;;;;7364466;19;20427;-76
2022/07/09 17:44:53;;;;;;;4.07;1.80;;;;;;;;;;7369192;19;20455;-74
2022/07/09 17:47:18;;;;;;;6.77;1.77;;;;;;;;;;7370409;19;20435;-73
2022/07/09 17:49:43;;;;;;;12.63;2.63;;;;;;;;;;7367744;19;20266;-74
2022/07/09 17:52:08;;;;;;;5.27;1.90;;;;;;;;;;7358304;19;20002;-74
2022/07/09 17:54:34;;;;;;;6.73;1.60;;;;;;;;;;7370427;19;20091;-74
2022/07/09 17:56:59;;;;;;;7.32;2.00;;;;;;;;;;7359570;19;20314;-74
2022/07/09 17:59:24;;;;;;;7.22;2.00;;;;;;;;;;7371525;19;20023;-74
2022/07/09 18:01:50;;;;;;;5.25;1.85;;;;;;;;;;7364833;19;20007;-75
2022/07/09 18:04:18;;;;;;;11.00;2.40;;;;;;;;;;7350869;19;20111;-73
2022/07/09 18:06:43;;;;;;;4.30;1.85;;;;;;;;;;7376508;19;20034;-74
2022/07/09 18:09:09;;;;;;;4.65;2.10;;;;;;;;;;7344943;19;20011;-72
2022/07/09 18:11:34;;;;;;;4.40;1.43;;;;;;;;;;7371374;19;20019;-71
2022/07/09 18:14:00;;;;;;;8.13;1.90;;;;;;;;;;7377714;19;20548;-71
2022/07/09 18:16:25;;;;;;;9.50;1.90;;;;;;;;;;7374327;19;20025;-74
2022/07/09 18:18:51;;;;;;;4.25;1.58;;;;;;;;;;7377961;19;20014;-74
2022/07/09 18:21:16;;;;;;;6.97;1.87;;;;;;;;;;7348817;19;20003;-72
2022/07/09 18:23:41;;;;;;;7.50;1.90;;;;;;;;;;7359397;19;20264;-72
2022/07/09 18:26:06;;;;;;;5.97;1.85;;;;;;;;;;7363668;19;20270;-74
2022/07/09 18:28:32;;;;;;;4.70;1.50;;;;;;;;;;7356891;19;20426;-72
2022/07/09 18:30:57;;;;;;;5.17;1.63;;;;;;;;;;7356780;19;20247;-74
2022/07/09 18:33:22;;;;;;;7.88;1.80;;;;;;;;;;7359847;19;20248;-72
2022/07/09 18:35:47;;;;;;;8.67;1.60;;;;;;;;;;7376580;19;20011;-73
2022/07/09 18:38:13;;;;;;;6.13;1.60;;;;;;;;;;7376720;19;20263;-73
2022/07/09 18:40:38;;;;;;;5.82;1.90;;;;;;;;;;7363457;19;20673;-71
2022/07/09 18:43:04;;;;;;;5.63;1.70;;;;;;;;;;7371708;19;20134;-75
2022/07/09 18:45:29;;;;;;;3.75;1.58;;;;;;;;;;7363311;19;20011;-74
2022/07/09 18:47:54;;;;;;;4.30;1.45;;;;;;;;;;7367791;19;20397;-73
2022/07/09 18:50:19;;;;;;;3.53;1.45;;;;;;;;;;7375068;19;20056;-72
2022/07/09 18:52:45;;;;;;;5.00;1.73;;;;;;;;;;7364187;19;20381;-72
2022/07/09 18:55:10;;;;;;;3.60;1.50;;;;;;;;;;7359491;19;20053;-74
2022/07/09 18:57:36;;;;;;;5.33;1.80;;;;;;;;;;7369090;19;20031;-74
2022/07/09 19:00:07;;;;;;;4.57;1.40;;;;;;;;;;7356141;19;20719;-74
2022/07/09 19:02:33;;;;;;;4.78;1.60;;;;;;;;;;7368406;19;20034;-72
2022/07/09 19:04:58;;;;;;;5.05;1.80;;;;;;;;;;7367585;19;19998;-74
2022/07/09 19:07:25;;;;;;;4.17;1.80;;;;;;;;;;7376247;19;20086;-71
2022/07/09 19:09:50;;;;;;;5.70;1.60;;;;;;;;;;7372417;19;20659;-74
2022/07/09 19:12:15;;;;;;;6.50;2.00;;;;;;;;;;7360821;19;20062;-74
2022/07/09 19:14:40;;;;;;;5.50;1.87;;;;;;;;;;7370074;19;20786;-72
2022/07/09 19:17:06;;;;;;;6.70;1.70;;;;;;;;;;7357590;19;20014;-72
2022/07/09 19:19:31;;;;;;;5.97;1.88;;;;;;;;;;7363210;19;20007;-74
2022/07/09 19:21:57;;;;;;;6.93;1.80;;;;;;;;;;7362705;19;20414;-72
2022/07/09 19:24:22;;;;;;;4.33;1.53;;;;;;;;;;7366571;19;20014;-72
2022/07/09 19:26:47;;;;;;;4.63;1.50;;;;;;;;;;7379842;19;20368;-72
2022/07/09 19:29:12;;;;;;;5.33;1.60;;;;;;;;;;7346791;19;20015;-72
2022/07/09 19:34:21;;;;;;;9.10;1.88;;;;;;;;;;7362884;19;20001;-72
2022/07/09 19:36:47;;;;;;;7.75;1.98;;;;;;;;;;7364354;19;20493;-73
2022/07/09 19:39:12;;;;;;;3.97;1.40;;;;;;;;;;7360536;19;20030;-74
2022/07/09 19:41:37;;;;;;;6.20;1.95;;;;;;;;;;7343232;19;20463;-76
2022/07/09 19:44:07;;;;;;;4.47;1.63;;;;;;;;;;7357770;19;20018;-74
2022/07/09 19:46:33;;;;;;;7.93;1.75;;;;;;;;;;7362488;19;20582;-74
2022/07/09 19:48:58;;;;;;;7.28;1.95;;;;;;;;;;7369955;19;20024;-74
2022/07/09 19:51:23;;;;;;;5.97;2.00;;;;;;;;;;7371010;19;20006;-74
2022/07/09 19:53:48;;;;;;;4.85;1.45;;;;;;;;;;7364535;19;20239;-73
2022/07/09 19:56:14;;;;;;;6.88;1.60;;;;;;;;;;7347673;19;20013;-73
2022/07/09 19:58:39;;;;;;;5.78;1.60;;;;;;;;;;7365780;19;20322;-73
2022/07/09 20:01:04;;;;;;;6.55;1.80;;;;;;;;;;7373148;19;20546;-73
2022/07/09 20:03:30;;;;;;;4.38;1.40;;;;;;;;;;7373525;19;20485;-73
2022/07/09 20:05:55;;;;;;;4.90;1.30;;;;;;;;;;7366216;19;20039;-73
2022/07/09 20:08:20;;;;;;;4.78;1.30;;;;;;;;;;7367810;19;21070;-73
2022/07/09 20:10:46;;;;;;;8.15;1.60;;;;;;;;;;7369425;19;20015;-72
2022/07/09 20:13:11;;;;;;;7.60;1.40;;;;;;;;;;7360299;19;20456;-73
2022/07/09 20:15:36;;;;;;;6.97;1.27;;;;;;;;;;7372266;19;20921;-72
2022/07/09 20:18:01;;;;;;;4.35;1.58;;;;;;;;;;7373847;19;20849;-73
2022/07/09 20:20:27;;;;;;;6.20;1.77;;;;;;;;;;7373466;19;20002;-72
2022/07/09 20:22:52;;;;;;;7.35;1.65;;;;;;;;;;7356510;19;20505;-73
2022/07/09 20:25:17;;;;;;;7.07;1.60;;;;;;;;;;7358897;19;20030;-72
2022/07/09 20:27:42;;;;;;;6.22;1.42;;;;;;;;;;7365309;19;20020;-72
2022/07/09 20:30:08;;;;;;;4.50;1.33;;;;;;;;;;7364792;19;20010;-72
2022/07/09 20:32:33;;;;;;;6.15;1.40;;;;;;;;;;7369895;19;20318;-72
2022/07/09 20:34:58;;;;;;;9.95;1.60;;;;;;;;;;7362362;19;20006;-73
2022/07/09 20:37:24;;;;;;;4.33;1.53;;;;;;;;;;7363943;19;20007;-73
2022/07/09 20:39:51;;;;;;;7.70;1.70;;;;;;;;;;7348615;19;19994;-72
2022/07/09 20:42:16;;;;;;;4.25;1.48;;;;;;;;;;7364390;19;20494;-75
2022/07/09 20:44:41;;;;;;;5.60;1.48;;;;;;;;;;7371784;19;20014;-74
2022/07/09 20:47:06;;;;;;;3.20;1.00;;;;;;;;;;7363697;19;20002;-72
2022/07/09 20:49:32;;;;;;;7.72;1.67;;;;;;;;;;7371516;19;20058;-75
2022/07/09 20:51:57;;;;;;;4.78;1.30;;;;;;;;;;7359351;19;20011;-74
2022/07/09 20:54:22;;;;;;;6.50;1.37;;;;;;;;;;7368498;19;20011;-74
2022/07/09 20:56:47;;;;;;;5.93;1.57;;;;;;;;;;7364139;19;20336;-74
2022/07/09 20:59:12;;;;;;;8.02;1.40;;;;;;;;;;7372408;19;20251;-74
2022/07/09 21:01:38;;;;;;;6.50;1.50;;;;;;;;;;7362936;19;19998;-74
2022/07/09 21:04:03;;;;;;;7.53;1.65;;;;;;;;;;7372316;19;20266;-74
2022/07/09 21:06:28;;;;;;;6.85;1.52;;;;;;;;;;7374295;19;19998;-73
2022/07/09 21:08:53;;;;;;;6.70;1.75;;;;;;;;;;7349954;19;20026;-73
2022/07/09 21:11:19;;;;;;;7.30;1.53;;;;;;;;;;7354715;19;20340;-74
2022/07/09 21:13:44;;;;;;;6.05;1.77;;;;;;;;;;7353889;19;20287;-73
2022/07/09 21:16:09;;;;;;;5.10;1.85;;;;;;;;;;7364533;19;19999;-73
2022/07/09 21:18:46;;;;;;;10.15;1.85;;;;;;;;;;7367120;19;20007;-73
2022/07/09 21:21:14;;;;;;;6.00;1.45;;;;;;;;;;7360613;19;20018;-73
2022/07/09 21:23:40;;;;;;;4.88;1.48;;;;;;;;;;7361450;19;20072;-72
2022/07/09 21:26:05;;;;;;;6.20;1.75;;;;;;;;;;7362050;19;20353;-73
2022/07/09 21:28:30;;;;;;;7.88;1.77;;;;;;;;;;7371333;19;20487;-73
2022/07/09 21:30:56;;;;;;;5.95;1.70;;;;;;;;;;7367782;19;20007;-72
2022/07/09 21:33:21;;;;;;;4.90;1.63;;;;;;;;;;7365809;19;20045;-73
2022/07/09 21:35:46;;;;;;;7.03;2.00;;;;;;;;;;7348688;19;20003;-73
2022/07/09 21:38:12;;;;;;;4.57;1.50;;;;;;;;;;7364145;19;20545;-73
2022/07/09 21:40:37;;;;;;;7.10;1.77;;;;;;;;;;7362970;19;20255;-73
2022/07/09 21:43:02;;;;;;;11.47;2.00;;;;;;;;;;7359472;19;20474;-73
2022/07/09 21:45:27;;;;;;;6.35;1.95;;;;;;;;;;7372862;19;20853;-73
2022/07/09 21:47:52;;;;;;;5.20;1.55;;;;;;;;;;7371583;19;20497;-73
2022/07/09 21:50:18;;;;;;;9.67;2.30;;;;;;;;;;7360814;19;20019;-73
2022/07/09 21:52:43;;;;;;;7.38;2.22;;;;;;;;;;7378077;19;20664;-74
2022/07/09 21:55:08;;;;;;;6.68;1.95;;;;;;;;;;7371118;19;19995;-73
2022/07/09 21:57:34;;;;;;;7.40;1.70;;;;;;;;;;7372795;19;20347;-73
2022/07/09 21:59:59;;;;;;;12.27;2.30;;;;;;;;;;7372590;19;20561;-73
2022/07/09 22:02:24;;;;;;;6.83;2.30;;;;;;;;;;7319130;19;20819;-73
2022/07/09 22:04:50;;;;;;;5.50;2.30;;;;;;;;;;7347856;19;20333;-73
2022/07/09 22:07:16;;;;;;;7.40;2.50;;;;;;;;;;7375091;19;20267;-72
2022/07/09 22:09:41;;;;;;;11.07;3.08;;;;;;;;;;7368144;19;20029;-73
2022/07/09 22:12:06;;;;;;;8.15;2.20;;;;;;;;;;7373183;19;20343;-73
2022/07/09 22:14:32;;;;;;;11.38;2.80;;;;;;;;;;7375337;19;20308;-74
2022/07/09 22:16:58;;;;;;;12.55;2.80;;;;;;;;;;7375457;19;20038;-72
2022/07/09 22:19:23;;;;;;;9.20;2.38;;;;;;;;;;7368881;19;20015;-73
2022/07/09 22:21:48;;;;;;;8.48;2.78;;;;;;;;;;7374655;19;20006;-73
2022/07/09 22:24:13;;;;;;;13.25;2.65;;;;;;;;;;7369238;19;20014;-73
2022/07/09 22:26:39;;;;;;;11.77;2.80;;;;;;;;;;7375798;19;20020;-73
2022/07/09 22:29:04;;;;;;;8.18;2.72;;;;;;;;;;7373275;19;20490;-73
2022/07/09 22:31:30;;;;;;;8.77;3.20;;;;;;;;;;7370487;19;20002;-73
2022/07/09 22:33:55;;;;;;;11.73;2.45;;;;;;;;;;7378630;19;20011;-74
2022/07/09 22:36:20;;;;;;;13.00;3.17;;;;;;;;;;7372330;19;20483;-74
2022/07/09 22:38:45;;;;;;;9.82;2.28;;;;;;;;;;7368952;19;20064;-74
2022/07/09 22:41:11;;;;;;;12.20;2.53;;;;;;;;;;7362145;19;20015;-74
2022/07/09 22:43:36;;;;;;;15.65;3.35;;;;;;;;;;7374856;19;20240;-73
2022/07/09 22:46:04;;;;;;;9.13;2.83;;;;;;;;;;7364926;19;20019;-74
2022/07/09 22:48:29;;;;;;;10.73;2.95;;;;;;;;;;7367672;19;20043;-74
2022/07/09 22:50:54;;;;;;;8.80;2.90;;;;;;;;;;7359327;19;20002;-73
2022/07/09 22:53:19;;;;;;;9.03;2.97;;;;;;;;;;7363726;19;20771;-73
2022/07/09 22:55:45;;;;;;;9.23;2.63;;;;;;;;;;7356188;19;20732;-74
2022/07/09 22:58:10;;;;;;;8.80;2.63;;;;;;;;;;7371524;19;20025;-73
2022/07/09 23:00:35;;;;;;;9.90;3.20;;;;;;;;;;7361060;19;20236;-73
2022/07/09 23:03:00;;;;;;;11.27;3.23;;;;;;;;;;7364826;19;21136;-74
2022/07/09 23:05:25;;;;;;;9.98;3.08;;;;;;;;;;7375174;19;20228;-73
2022/07/09 23:10:34;;;;;;;10.85;2.80;;;;;;;;;;7370718;19;20032;-73
2022/07/09 23:13:00;;;;;;;11.23;2.70;;;;;;;;;;7377120;19;20488;-73
2022/07/09 23:15:25;;;;;;;7.88;2.60;;;;;;;;;;7379536;19;20251;-73
2022/07/09 23:17:51;;;;;;;9.40;2.93;;;;;;;;;;7378437;19;19999;-73
2022/07/09 23:20:19;;;;;;;10.82;2.53;;;;;;;;;;7371061;19;20287;-72
2022/07/09 23:22:44;;;;;;;10.63;2.90;;;;;;;;;;7375271;19;20018;-73
2022/07/09 23:25:09;;;;;;;8.52;2.40;;;;;;;;;;7372208;19;20017;-73
2022/07/09 23:27:36;;;;;;;8.00;2.40;;;;;;;;;;7376449;19;20078;-72
2022/07/09 23:30:03;;;;;;;8.77;2.30;;;;;;;;;;7374558;19;20842;-73
2022/07/09 23:32:28;;;;;;;11.88;2.28;;;;;;;;;;7366138;19;20014;-73
2022/07/09 23:34:53;;;;;;;12.43;2.80;;;;;;;;;;7380482;19;20002;-73
2022/07/09 23:37:18;;;;;;;8.67;2.40;;;;;;;;;;7367980;19;20258;-73
2022/07/09 23:39:43;;;;;;;6.07;2.00;;;;;;;;;;7371243;19;20015;-73
2022/07/09 23:42:08;;;;;;;6.93;2.10;;;;;;;;;;7377279;19;20017;-71
2022/07/09 23:44:34;;;;;;;10.05;2.50;;;;;;;;;;7377241;19;20014;-72
2022/07/09 23:46:59;;;;;;;5.47;1.77;;;;;;;;;;7375430;19;20002;-73
2022/07/09 23:49:24;;;;;;;11.90;2.53;;;;;;;;;;7366597;19;20247;-73
2022/07/09 23:51:49;;;;;;;10.60;2.90;;;;;;;;;;7373348;19;20239;-72
2022/07/09 23:54:14;;;;;;;6.82;2.70;;;;;;;;;;7365440;19;20593;-72
2022/07/09 23:56:40;;;;;;;10.63;2.67;;;;;;;;;;7370752;19;20332;-72
2022/07/09 23:59:05;;;;;;;14.20;2.37;;;;;;;;;;7366328;19;20244;-73
